^^
Saratoga-Weather Station Historical Data
Daily Summary for May 21, 2020 Units:  Metric    English   Both
Daily Weekly Monthly Yearly Custom
  High: Low: Average:
Temperature: 25.1 °C 11.3 °C 18.8 °C
Dew Point: 16.1 °C 10.5 °C 13.3 °C
Humidity: 96% 48% 73%
Wind Speed: 19.3km/h 0km/h 2.5km/h
Wind Gust: 19.3km/h - -
Wind- - SW
Pressure: 1020.3 hPa 1019.0 hPa -
Precipitation: 0.0 mm    
Historical Graphs
 
 
Tabular Data for May 21, 2020
Time Temperature Dew Point Pressure Wind Wind Speed Wind Gust Humidity Rainfall Rate (Hourly) solar
00:02 14.6 °C 12.5 °C 1020.3 hPa Calm     87% 0.0 mm 0 W/m2
00:07 14.5 °C 12.5 °C 1020.3 hPa Calm     88% 0.0 mm 0 W/m2
00:12 14.4 °C 12.4 °C 1020.3 hPa Calm     88% 0.0 mm 0 W/m2
00:17 14.4 °C 12.6 °C 1020.3 hPa Calm     89% 0.0 mm 0 W/m2
00:22 14.4 °C 12.6 °C 1020.3 hPa Calm     89% 0.0 mm 0 W/m2
00:27 14.5 °C 12.7 °C 1020.3 hPa Calm     89% 0.0 mm 0 W/m2
00:32 14.5 °C 12.7 °C 1020.3 hPa Calm     89% 0.0 mm 0 W/m2
00:37 14.5 °C 12.7 °C 1020.3 hPa Calm     89% 0.0 mm 0 W/m2
00:42 14.4 °C 12.6 °C 1020.3 hPa Calm     89% 0.0 mm 0 W/m2
00:47 14.4 °C 12.6 °C 1020.3 hPa Calm     89% 0.0 mm 0 W/m2
00:52 14.3 °C 12.5 °C 1020.3 hPa Calm     89% 0.0 mm 0 W/m2
00:58 14.3 °C 12.7 °C 1020.3 hPa Calm     90% 0.0 mm 0 W/m2
01:03 14.2 °C 12.6 °C 1020.3 hPa Calm     90% 0.0 mm 0 W/m2
01:08 14.2 °C 12.6 °C 1020.3 hPa Calm     90% 0.0 mm 0 W/m2
01:13 14.1 °C 12.5 °C 1020.3 hPa Calm     90% 0.0 mm 0 W/m2
01:18 14.1 °C 12.5 °C 1020.0 hPa Calm     90% 0.0 mm 0 W/m2
01:23 14 °C 12.4 °C 1020.3 hPa Calm     90% 0.0 mm 0 W/m2
01:28 13.9 °C 12.3 °C 1020.3 hPa Calm     90% 0.0 mm 0 W/m2
01:33 13.8 °C 12.2 °C 1020.3 hPa Calm     90% 0.0 mm 0 W/m2
01:38 13.7 °C 12.3 °C 1020.3 hPa Calm     91% 0.0 mm 0 W/m2
01:43 13.6 °C 12.2 °C 1020.3 hPa Calm     91% 0.0 mm 0 W/m2
01:48 13.5 °C 12.1 °C 1020.3 hPa Calm     91% 0.0 mm 0 W/m2
01:53 13.4 °C 12 °C 1020.3 hPa Calm     91% 0.0 mm 0 W/m2
01:58 13.4 °C 12.1 °C 1020.3 hPa Calm     92% 0.0 mm 0 W/m2
02:03 13.4 °C 12.1 °C 1020.0 hPa Calm     92% 0.0 mm 0 W/m2
02:08 13.4 °C 12.1 °C 1020.0 hPa Calm     92% 0.0 mm 0 W/m2
02:13 13.3 °C 12 °C 1020.0 hPa Calm     92% 0.0 mm 0 W/m2
02:19 13.3 °C 12 °C 1020.0 hPa Calm     92% 0.0 mm 0 W/m2
02:24 13.2 °C 11.9 °C 1020.0 hPa Calm     92% 0.0 mm 0 W/m2
02:29 13.1 °C 11.8 °C 1020.0 hPa Calm     92% 0.0 mm 0 W/m2
02:34 13.1 °C 11.8 °C 1020.0 hPa Calm     92% 0.0 mm 0 W/m2
02:39 12.9 °C 11.6 °C 1020.0 hPa Calm     92% 0.0 mm 0 W/m2
02:44 12.9 °C 11.6 °C 1020.0 hPa Calm     92% 0.0 mm 0 W/m2
02:49 12.8 °C 11.5 °C 1020.0 hPa Calm     92% 0.0 mm 0 W/m2
02:54 12.7 °C 11.4 °C 1020.0 hPa Calm     92% 0.0 mm 0 W/m2
02:59 12.7 °C 11.6 °C 1019.6 hPa Calm     93% 0.0 mm 0 W/m2
03:04 12.7 °C 11.6 °C 1020.0 hPa Calm     93% 0.0 mm 0 W/m2
03:09 12.6 °C 11.5 °C 1020.0 hPa Calm     93% 0.0 mm 0 W/m2
03:14 12.5 °C 11.4 °C 1019.6 hPa Calm     93% 0.0 mm 0 W/m2
03:19 12.4 °C 11.3 °C 1019.6 hPa Calm     93% 0.0 mm 0 W/m2
03:24 12.4 °C 11.3 °C 1019.6 hPa Calm     93% 0.0 mm 0 W/m2
03:29 12.4 °C 11.3 °C 1019.6 hPa Calm     93% 0.0 mm 0 W/m2
03:34 12.3 °C 11.4 °C 1019.6 hPa Calm     94% 0.0 mm 0 W/m2
03:40 12.2 °C 11.1 °C 1019.6 hPa Calm     93% 0.0 mm 0 W/m2
03:45 12.2 °C 11.3 °C 1019.6 hPa Calm     94% 0.0 mm 0 W/m2
03:50 12.1 °C 11.2 °C 1019.6 hPa Calm     94% 0.0 mm 0 W/m2
03:55 12.1 °C 11.2 °C 1019.6 hPa Calm     94% 0.0 mm 0 W/m2
04:00 12.1 °C 11.2 °C 1019.6 hPa Calm     94% 0.0 mm 0 W/m2
04:05 11.9 °C 11 °C 1019.6 hPa Calm     94% 0.0 mm 0 W/m2
04:10 11.9 °C 11 °C 1019.6 hPa Calm     94% 0.0 mm 0 W/m2
04:15 11.9 °C 11 °C 1019.6 hPa Calm     94% 0.0 mm 0 W/m2
04:21 11.9 °C 11 °C 1019.6 hPa Calm     94% 0.0 mm 0 W/m2
04:26 11.9 °C 11 °C 1019.6 hPa Calm     94% 0.0 mm 0 W/m2
04:31 11.9 °C 11 °C 1019.6 hPa Calm     94% 0.0 mm 0 W/m2
04:36 11.8 °C 11 °C 1019.6 hPa Calm     95% 0.0 mm 0 W/m2
04:41 11.8 °C 11 °C 1019.6 hPa Calm     95% 0.0 mm 0 W/m2
04:46 11.8 °C 11 °C 1019.6 hPa Calm     95% 0.0 mm 0 W/m2
04:51 11.7 °C 10.9 °C 1019.6 hPa Calm     95% 0.0 mm 0 W/m2
04:56 11.7 °C 10.9 °C 1019.6 hPa Calm     95% 0.0 mm 0 W/m2
05:01 11.7 °C 10.9 °C 1019.6 hPa Calm     95% 0.0 mm 0 W/m2
05:06 11.6 °C 10.8 °C 1019.6 hPa Calm     95% 0.0 mm 0 W/m2
05:11 11.5 °C 10.7 °C 1019.6 hPa Calm     95% 0.0 mm 0 W/m2
05:16 11.4 °C 10.6 °C 1019.6 hPa Calm     95% 0.0 mm 0 W/m2
05:21 11.4 °C 10.6 °C 1019.6 hPa Calm     95% 0.0 mm 0 W/m2
05:26 11.4 °C 10.6 °C 1019.6 hPa Calm     95% 0.0 mm 0 W/m2
05:31 11.3 °C 10.5 °C 1019.6 hPa Calm     95% 0.0 mm 0 W/m2
05:36 11.3 °C 10.5 °C 1019.6 hPa Calm     95% 0.0 mm 5 W/m2
05:42 11.3 °C 10.5 °C 1019.6 hPa Calm     95% 0.0 mm 7 W/m2
05:47 11.3 °C 10.5 °C 1019.6 hPa Calm     95% 0.0 mm 9 W/m2
05:52 11.3 °C 10.5 °C 1019.6 hPa Calm     95% 0.0 mm 11 W/m2
05:57 11.3 °C 10.5 °C 1019.6 hPa Calm     95% 0.0 mm 12 W/m2
06:02 11.3 °C 10.5 °C 1019.6 hPa Calm     95% 0.0 mm 16 W/m2
06:07 11.3 °C 10.5 °C 1020.0 hPa Calm     95% 0.0 mm 16 W/m2
06:12 11.3 °C 10.5 °C 1020.0 hPa Calm     95% 0.0 mm 19 W/m2
06:17 11.3 °C 10.5 °C 1020.0 hPa Calm     95% 0.0 mm 21 W/m2
06:22 11.3 °C 10.5 °C 1020.0 hPa Calm     95% 0.0 mm 23 W/m2
06:27 11.4 °C 10.8 °C 1020.0 hPa Calm     96% 0.0 mm 25 W/m2
06:32 11.4 °C 10.8 °C 1020.0 hPa Calm     96% 0.0 mm 26 W/m2
06:37 11.6 °C 11 °C 1020.0 hPa Calm     96% 0.0 mm 26 W/m2
06:42 11.7 °C 11.1 °C 1019.6 hPa Calm     96% 0.0 mm 28 W/m2
06:47 11.8 °C 11.2 °C 1020.0 hPa Calm     96% 0.0 mm 28 W/m2
06:53 11.8 °C 11.2 °C 1020.0 hPa Calm     96% 0.0 mm 30 W/m2
06:58 11.9 °C 11.3 °C 1020.0 hPa Calm     96% 0.0 mm 30 W/m2
07:03 12.1 °C 11.5 °C 1020.0 hPa Calm     96% 0.0 mm 32 W/m2
07:08 12.2 °C 11.6 °C 1020.0 hPa Calm     96% 0.0 mm 32 W/m2
07:13 12.3 °C 11.7 °C 1020.0 hPa Calm     96% 0.0 mm 33 W/m2
07:18 12.4 °C 11.8 °C 1020.0 hPa Calm     96% 0.0 mm 33 W/m2
07:23 12.6 °C 12 °C 1020.0 hPa Calm     96% 0.0 mm 35 W/m2
07:28 12.8 °C 12.2 °C 1020.0 hPa Calm     96% 0.0 mm 54 W/m2
07:33 13.1 °C 12.5 °C 1020.0 hPa ENE 1.4 km/h 4.8 km/h 96% 0.0 mm 37 W/m2
07:38 13.3 °C 12.7 °C 1020.0 hPa Calm   1.6 km/h 96% 0.0 mm 72 W/m2
07:43 13.6 °C 13 °C 1020.0 hPa East 4.7 km/h 4.8 km/h 96% 0.0 mm 227 W/m2
07:48 13.8 °C 13 °C 1020.0 hPa NE 3.2 km/h 3.2 km/h 95% 0.0 mm 239 W/m2
07:53 14.3 °C 13.5 °C 1020.0 hPa Calm   3.2 km/h 95% 0.0 mm 255 W/m2
07:59 14.7 °C 13.7 °C 1020.0 hPa ENE 3.2 km/h 3.2 km/h 94% 0.0 mm 265 W/m2
08:04 15.3 °C 14 °C 1020.0 hPa ENE 3.2 km/h 3.2 km/h 92% 0.0 mm 281 W/m2
08:09 15.9 °C 14.3 °C 1020.0 hPa Calm   3.2 km/h 90% 0.0 mm 301 W/m2
08:14 16.2 °C 14.2 °C 1020.0 hPa ENE 3.2 km/h 3.2 km/h 88% 0.0 mm 315 W/m2
08:19 16.5 °C 14.1 °C 1020.0 hPa ESE 4.7 km/h 4.8 km/h 86% 0.0 mm 329 W/m2
08:24 16.9 °C 14.4 °C 1020.0 hPa Calm   3.2 km/h 85% 0.0 mm 345 W/m2
08:29 17.4 °C 14.5 °C 1020.0 hPa ENE 3.2 km/h 3.2 km/h 83% 0.0 mm 362 W/m2
08:34 17.9 °C 14.8 °C 1020.0 hPa East 1.4 km/h 3.2 km/h 82% 0.0 mm 390 W/m2
08:39 18.2 °C 14.7 °C 1020.0 hPa East 3.2 km/h 4.8 km/h 80% 0.0 mm 420 W/m2
08:44 18.6 °C 14.9 °C 1020.0 hPa Calm   3.2 km/h 79% 0.0 mm 450 W/m2
08:49 18.9 °C 15 °C 1020.0 hPa ENE 1.4 km/h 4.8 km/h 78% 0.0 mm 476 W/m2
08:54 19.1 °C 15 °C 1020.0 hPa East 1.4 km/h 4.8 km/h 77% 0.0 mm 455 W/m2
08:59 19.3 °C 15.2 °C 1020.0 hPa East 1.4 km/h 4.8 km/h 77% 0.0 mm 369 W/m2
09:05 19.3 °C 15.2 °C 1020.0 hPa East 3.2 km/h 3.2 km/h 77% 0.0 mm 399 W/m2
09:10 19.4 °C 15.1 °C 1020.0 hPa ESE 1.4 km/h 6.4 km/h 76% 0.0 mm 459 W/m2
09:15 19.7 °C 15.3 °C 1020.0 hPa NE 3.2 km/h 8 km/h 76% 0.0 mm 543 W/m2
09:20 19.7 °C 15.1 °C 1020.0 hPa East 1.4 km/h 3.2 km/h 75% 0.0 mm 418 W/m2
09:25 19.6 °C 15.3 °C 1020.0 hPa ESE 1.4 km/h 8 km/h 76% 0.0 mm 209 W/m2
09:30 19.6 °C 15.3 °C 1020.0 hPa East 3.2 km/h 4.8 km/h 76% 0.0 mm 359 W/m2
09:35 19.6 °C 15.5 °C 1020.0 hPa East 3.2 km/h 6.4 km/h 77% 0.0 mm 443 W/m2
09:40 19.8 °C 15.4 °C 1020.0 hPa East 1.4 km/h 6.4 km/h 76% 0.0 mm 677 W/m2
09:48 20.2 °C 15.6 °C 1020.0 hPa NE 4.7 km/h 6.4 km/h 75% 0.0 mm 719 W/m2
09:53 20.7 °C 15.9 °C 1020.0 hPa Calm   9.7 km/h 74% 0.0 mm 733 W/m2
09:58 21.1 °C 16.1 °C 1020.0 hPa North 3.2 km/h 4.8 km/h 73% 0.0 mm 647 W/m2
10:03 20.9 °C 15.7 °C 1020.0 hPa NNE 1.4 km/h 8 km/h 72% 0.0 mm 246 W/m2
10:08 20.6 °C 15.6 °C 1020.0 hPa Calm   1.6 km/h 73% 0.0 mm 262 W/m2
10:13 20.5 °C 15.7 °C 1020.0 hPa Calm   6.4 km/h 74% 0.0 mm 250 W/m2
10:18 20.4 °C 15.2 °C 1020.0 hPa Calm   1.6 km/h 72% 0.0 mm 243 W/m2
10:23 20.6 °C 14.5 °C 1020.0 hPa NW 4.8 km/h 4.8 km/h 68% 0.0 mm 413 W/m2
10:28 20.7 °C 14.8 °C 1020.0 hPa ENE 1.4 km/h 4.8 km/h 69% 0.0 mm 380 W/m2
10:33 20.9 °C 14.5 °C 1020.0 hPa East 4.7 km/h 9.7 km/h 67% 0.0 mm 617 W/m2
10:38 21.3 °C 14.7 °C 1019.6 hPa West 4.7 km/h 6.4 km/h 66% 0.0 mm 693 W/m2
10:43 21.5 °C 14.2 °C 1019.6 hPa WNW 3.2 km/h 6.4 km/h 63% 0.0 mm 700 W/m2
10:48 21.6 °C 14 °C 1020.0 hPa West 6.4 km/h 11.3 km/h 62% 0.0 mm 703 W/m2
10:53 21.6 °C 14.5 °C 1020.0 hPa WNW 4.7 km/h 4.8 km/h 64% 0.0 mm 668 W/m2
10:58 21.7 °C 14.8 °C 1020.0 hPa SW 4.7 km/h 11.3 km/h 65% 0.0 mm 645 W/m2
11:03 21.8 °C 14.2 °C 1020.0 hPa West 1.4 km/h 11.3 km/h 62% 0.0 mm 686 W/m2
11:08 21.9 °C 14.3 °C 1020.0 hPa WSW 4.7 km/h 6.4 km/h 62% 0.0 mm 636 W/m2
11:14 21.8 °C 13.9 °C 1020.0 hPa Calm   6.4 km/h 61% 0.0 mm 814 W/m2
11:19 21.8 °C 13.9 °C 1020.0 hPa WNW 7.9 km/h 11.3 km/h 61% 0.0 mm 464 W/m2
11:24 21.7 °C 13.6 °C 1020.0 hPa WNW 6.4 km/h 6.4 km/h 60% 0.0 mm 364 W/m2
11:29 21.8 °C 14.2 °C 1020.0 hPa WSW 3.2 km/h 3.2 km/h 62% 0.0 mm 838 W/m2
11:34 21.9 °C 14 °C 1020.0 hPa ESE 3.2 km/h 4.8 km/h 61% 0.0 mm 840 W/m2
11:39 22.3 °C 14.4 °C 1019.6 hPa WNW 4.7 km/h 4.8 km/h 61% 0.0 mm 874 W/m2
11:44 22.5 °C 14.3 °C 1019.6 hPa WNW 1.4 km/h 6.4 km/h 60% 0.0 mm 779 W/m2
11:49 22.4 °C 14.3 °C 1019.6 hPa Calm   3.2 km/h 60% 0.0 mm 582 W/m2
11:54 22.4 °C 14.8 °C 1019.6 hPa West 1.4 km/h 6.4 km/h 62% 0.0 mm 343 W/m2
11:59 22.3 °C 14.2 °C 1019.6 hPa NE 4.7 km/h 6.4 km/h 60% 0.0 mm 677 W/m2
12:04 22.4 °C 14.5 °C 1019.6 hPa WNW 3.2 km/h 4.8 km/h 61% 0.0 mm 179 W/m2
12:09 22.4 °C 14.5 °C 1019.6 hPa Calm   3.2 km/h 61% 0.0 mm 142 W/m2
12:14 22.7 °C 14.5 °C 1019.6 hPa Calm   4.8 km/h 60% 0.0 mm 1011 W/m2
12:19 23.3 °C 14.8 °C 1019.6 hPa NW 1.4 km/h 6.4 km/h 59% 0.0 mm 1030 W/m2
12:24 23.4 °C 14.9 °C 1019.6 hPa West 9.7 km/h 12.9 km/h 59% 0.0 mm 1005 W/m2
12:29 23.4 °C 14.4 °C 1019.6 hPa NW 4.7 km/h 6.4 km/h 57% 0.0 mm 1053 W/m2
12:34 23.7 °C 14.7 °C 1019.6 hPa SW 4.7 km/h 11.3 km/h 57% 0.0 mm 1027 W/m2
12:39 23.6 °C 14.6 °C 1019.6 hPa NNW 4.7 km/h 11.3 km/h 57% 0.0 mm 1051 W/m2
12:44 23.6 °C 14.9 °C 1019.6 hPa NW 3.2 km/h 12.9 km/h 58% 0.0 mm 939 W/m2
12:49 23.6 °C 15.4 °C 1019.6 hPa WSW 1.4 km/h 4.8 km/h 60% 0.0 mm 946 W/m2
12:54 23.9 °C 15.1 °C 1019.6 hPa West 3.2 km/h 4.8 km/h 58% 0.0 mm 997 W/m2
12:59 23.7 °C 14.7 °C 1019.6 hPa Calm   4.8 km/h 57% 0.0 mm 202 W/m2
13:04 23.3 °C 14.6 °C 1019.6 hPa WSW 6.4 km/h 11.3 km/h 58% 0.0 mm 190 W/m2
13:09 22.8 °C 14.4 °C 1019.6 hPa West 4.7 km/h 11.3 km/h 59% 0.0 mm 183 W/m2
13:14 22.4 °C 14.3 °C 1019.6 hPa WNW 4.7 km/h 6.4 km/h 60% 0.0 mm 183 W/m2
13:19 22.4 °C 14 °C 1019.6 hPa WNW 1.4 km/h 6.4 km/h 59% 0.0 mm 192 W/m2
13:24 22.3 °C 14.2 °C 1019.6 hPa West 1.4 km/h 6.4 km/h 60% 0.0 mm 299 W/m2
13:29 22.4 °C 14.3 °C 1019.6 hPa North 4.7 km/h 4.8 km/h 60% 0.0 mm 397 W/m2
13:34 22.7 °C 14.8 °C 1019.6 hPa NNW 7.9 km/h 9.7 km/h 61% 0.0 mm 1071 W/m2
13:39 23.4 °C 14.7 °C 1019.6 hPa WSW 6.4 km/h 9.7 km/h 58% 0.0 mm 912 W/m2
13:44 23.7 °C 14.4 °C 1019.3 hPa NW 6.4 km/h 12.9 km/h 56% 0.0 mm 900 W/m2
13:49 23.8 °C 14.2 °C 1019.6 hPa WNW 9.7 km/h 11.3 km/h 55% 0.0 mm 896 W/m2
13:54 23.7 °C 14.4 °C 1019.6 hPa North 19.3 km/h 19.3 km/h 56% 0.0 mm 900 W/m2
14:00 23.9 °C 14.9 °C 1019.6 hPa SE 4.7 km/h 4.8 km/h 57% 0.0 mm 933 W/m2
14:05 24.2 °C 14.3 °C 1019.6 hPa NW 3.2 km/h 12.9 km/h 54% 0.0 mm 979 W/m2
14:10 23.9 °C 14.6 °C 1019.3 hPa ENE 1.4 km/h 6.4 km/h 56% 0.0 mm 937 W/m2
14:15 24.1 °C 14.5 °C 1019.6 hPa West 3.2 km/h 9.7 km/h 55% 0.0 mm 911 W/m2
14:20 24.1 °C 14.2 °C 1019.3 hPa Calm   3.2 km/h 54% 0.0 mm 923 W/m2
14:25 24.2 °C 14.3 °C 1019.6 hPa WNW 11.1 km/h 16.1 km/h 54% 0.0 mm 940 W/m2
14:30 24.2 °C 13.7 °C 1019.3 hPa SW 3.2 km/h 12.9 km/h 52% 0.0 mm 925 W/m2
14:35 24.4 °C 14.2 °C 1019.3 hPa West 9.7 km/h 9.7 km/h 53% 0.0 mm 838 W/m2
14:40 24.3 °C 14.4 °C 1019.3 hPa WNW 6.4 km/h 12.9 km/h 54% 0.0 mm 786 W/m2
14:45 24.3 °C 14.1 °C 1019.3 hPa NE 6.4 km/h 8 km/h 53% 0.0 mm 923 W/m2
14:50 24.4 °C 14.2 °C 1019.3 hPa West 6.4 km/h 6.4 km/h 53% 0.0 mm 165 W/m2
14:55 24.4 °C 13.9 °C 1019.3 hPa SW 1.4 km/h 4.8 km/h 52% 0.0 mm 932 W/m2
15:00 24.8 °C 14.3 °C 1019.3 hPa WNW 3.2 km/h 16.1 km/h 52% 0.0 mm 919 W/m2
15:05 25.1 °C 13.9 °C 1019.3 hPa WNW 6.4 km/h 11.3 km/h 50% 0.0 mm 944 W/m2
15:10 24.7 °C 13.6 °C 1019.3 hPa SW 9.7 km/h 11.3 km/h 50% 0.0 mm 144 W/m2
15:15 24.4 °C 13.3 °C 1019.3 hPa SSW 1.4 km/h 3.2 km/h 50% 0.0 mm 160 W/m2
15:20 24.4 °C 13.9 °C 1019.3 hPa SSW 1.4 km/h 8 km/h 52% 0.0 mm 912 W/m2
15:25 24.7 °C 13.9 °C 1019.0 hPa WNW 11.1 km/h 11.3 km/h 51% 0.0 mm 888 W/m2
15:30 24.6 °C 13.5 °C 1019.3 hPa WNW 6.4 km/h 9.7 km/h 50% 0.0 mm 146 W/m2
15:35 24.6 °C 13.8 °C 1019.0 hPa NNE 1.4 km/h 8 km/h 51% 0.0 mm 858 W/m2
15:40 24.7 °C 13.9 °C 1019.0 hPa North 6.4 km/h 6.4 km/h 51% 0.0 mm 898 W/m2
15:45 24.7 °C 13.9 °C 1019.0 hPa WNW 4.7 km/h 4.8 km/h 51% 0.0 mm 174 W/m2
15:50 24.7 °C 13.6 °C 1019.0 hPa WNW 3.2 km/h 6.4 km/h 50% 0.0 mm 837 W/m2
15:55 24.8 °C 13 °C 1019.0 hPa WSW 7.9 km/h 14.5 km/h 48% 0.0 mm 828 W/m2
16:00 25 °C 13.9 °C 1019.0 hPa SSW 3.2 km/h 9.7 km/h 50% 0.0 mm 765 W/m2
16:05 25.1 °C 13.6 °C 1019.0 hPa SW 6.4 km/h 14.5 km/h 49% 0.0 mm 204 W/m2
16:10 24.9 °C 13.5 °C 1019.0 hPa WNW 13 km/h 12.9 km/h 49% 0.0 mm 770 W/m2
16:19 24.8 °C 13.7 °C 1019.0 hPa NE 1.4 km/h 6.4 km/h 50% 0.0 mm 768 W/m2
16:20 24.8 °C 13.4 °C 1019.0 hPa WNW 7.9 km/h 12.9 km/h 49% 0.0 mm 629 W/m2
16:25 24.8 °C 13.4 °C 1019.0 hPa West 6.4 km/h 6.4 km/h 49% 0.0 mm 679 W/m2
16:30 24.9 °C 13.1 °C 1019.0 hPa WNW 1.4 km/h 4.8 km/h 48% 0.0 mm 652 W/m2
16:35 24.9 °C 13.1 °C 1019.0 hPa WSW 7.9 km/h 12.9 km/h 48% 0.0 mm 225 W/m2
16:40 24.8 °C 13 °C 1019.0 hPa SW 4.7 km/h 4.8 km/h 48% 0.0 mm 294 W/m2
16:45 24.7 °C 13 °C 1019.0 hPa NW 7.9 km/h 12.9 km/h 48% 0.0 mm 390 W/m2
16:50 24.7 °C 13.3 °C 1019.0 hPa NW 6.4 km/h 12.9 km/h 49% 0.0 mm 380 W/m2
16:55 24.3 °C 12.9 °C 1019.0 hPa NNW 7.9 km/h 12.9 km/h 49% 0.0 mm 276 W/m2
17:00 24.2 °C 13.7 °C 1019.0 hPa WNW 6.4 km/h 11.3 km/h 52% 0.0 mm 327 W/m2
17:05 24.3 °C 13.8 °C 1019.0 hPa NNW 3.2 km/h 4.8 km/h 52% 0.0 mm 225 W/m2
17:10 24.3 °C 13.8 °C 1019.0 hPa East 3.2 km/h 6.4 km/h 52% 0.0 mm 142 W/m2
17:15 24 °C 13.5 °C 1019.3 hPa NNW 6.4 km/h 6.4 km/h 52% 0.0 mm 134 W/m2
17:20 23.7 °C 13.6 °C 1019.0 hPa SW 6.4 km/h 9.7 km/h 53% 0.0 mm 200 W/m2
17:25 23.6 °C 13.7 °C 1019.3 hPa WNW 4.7 km/h 14.5 km/h 54% 0.0 mm 229 W/m2
17:30 23.5 °C 14.2 °C 1019.3 hPa WNW 3.2 km/h 9.7 km/h 56% 0.0 mm 227 W/m2
17:35 23.5 °C 13.9 °C 1019.3 hPa NW 7.9 km/h 16.1 km/h 55% 0.0 mm 227 W/m2
17:40 23.4 °C 14.1 °C 1019.3 hPa WNW 13 km/h 12.9 km/h 56% 0.0 mm 209 W/m2
17:45 23.4 °C 14.4 °C 1019.3 hPa SW 6.4 km/h 16.1 km/h 57% 0.0 mm 195 W/m2
17:50 23.4 °C 14.4 °C 1019.3 hPa NW 4.7 km/h 6.4 km/h 57% 0.0 mm 188 W/m2
17:55 23.3 °C 14.6 °C 1019.3 hPa WNW 4.7 km/h 12.9 km/h 58% 0.0 mm 202 W/m2
18:00 23.3 °C 14 °C 1019.3 hPa NW 6.4 km/h 9.7 km/h 56% 0.0 mm 206 W/m2
18:05 23.3 °C 14.3 °C 1019.3 hPa WSW 4.7 km/h 11.3 km/h 57% 0.0 mm 188 W/m2
18:10 23.2 °C 14.2 °C 1019.3 hPa West 1.4 km/h 11.3 km/h 57% 0.0 mm 179 W/m2
18:15 23.2 °C 14.5 °C 1019.3 hPa West 1.4 km/h 4.8 km/h 58% 0.0 mm 181 W/m2
18:20 23.2 °C 14.5 °C 1019.3 hPa WNW 4.7 km/h 12.9 km/h 58% 0.0 mm 214 W/m2
18:25 23.2 °C 14.5 °C 1019.0 hPa WNW 6.4 km/h 6.4 km/h 58% 0.0 mm 257 W/m2
18:30 23.5 °C 15 °C 1019.3 hPa WNW 4.7 km/h 4.8 km/h 59% 0.0 mm 455 W/m2
18:36 24 °C 15.2 °C 1019.0 hPa SSW 1.4 km/h 9.7 km/h 58% 0.0 mm 552 W/m2
18:41 24.5 °C 14.9 °C 1019.0 hPa WNW 1.4 km/h 4.8 km/h 55% 0.0 mm 265 W/m2
18:46 24.7 °C 15.1 °C 1019.0 hPa West 1.4 km/h 6.4 km/h 55% 0.0 mm 360 W/m2
18:51 24.7 °C 14.8 °C 1019.0 hPa West 3.2 km/h 6.4 km/h 54% 0.0 mm 153 W/m2
18:56 24.2 °C 14.3 °C 1019.0 hPa NW 3.2 km/h 11.3 km/h 54% 0.0 mm 156 W/m2
19:01 23.9 °C 14 °C 1019.0 hPa West 3.2 km/h 12.9 km/h 54% 0.0 mm 134 W/m2
19:06 23.7 °C 14.1 °C 1019.0 hPa WSW 4.7 km/h 6.4 km/h 55% 0.0 mm 144 W/m2
19:11 23.8 °C 14.5 °C 1019.0 hPa NW 3.2 km/h 12.9 km/h 56% 0.0 mm 327 W/m2
19:16 24.1 °C 14.8 °C 1019.0 hPa WNW 1.4 km/h 3.2 km/h 56% 0.0 mm 380 W/m2
19:21 24.4 °C 14.8 °C 1019.0 hPa WNW 4.7 km/h 14.5 km/h 55% 0.0 mm 283 W/m2
19:26 24.2 °C 14.6 °C 1019.0 hPa West 3.2 km/h 9.7 km/h 55% 0.0 mm 88 W/m2
19:31 23.9 °C 14.6 °C 1019.0 hPa WSW 4.7 km/h 8 km/h 56% 0.0 mm 63 W/m2
19:36 23.6 °C 14.6 °C 1019.3 hPa WSW 4.7 km/h 4.8 km/h 57% 0.0 mm 54 W/m2
19:41 23.3 °C 14.6 °C 1019.3 hPa West 3.2 km/h 4.8 km/h 58% 0.0 mm 146 W/m2
19:46 23.3 °C 15.1 °C 1019.3 hPa WSW 3.2 km/h 3.2 km/h 60% 0.0 mm 213 W/m2
19:51 23.6 °C 15.1 °C 1019.3 hPa Calm   1.6 km/h 59% 0.0 mm 167 W/m2
19:56 23.9 °C 15.1 °C 1019.0 hPa WNW 6.4 km/h 9.7 km/h 58% 0.0 mm 185 W/m2
20:01 23.9 °C 14.9 °C 1019.3 hPa WNW 3.2 km/h 6.4 km/h 57% 0.0 mm 179 W/m2
20:06 23.9 °C 14.9 °C 1019.3 hPa WNW 3.2 km/h 8 km/h 57% 0.0 mm 176 W/m2
20:11 24 °C 14.7 °C 1019.3 hPa NW 3.2 km/h 9.7 km/h 56% 0.0 mm 185 W/m2
20:16 24 °C 14.7 °C 1019.3 hPa NW 3.2 km/h 4.8 km/h 56% 0.0 mm 174 W/m2
20:21 23.9 °C 14 °C 1019.3 hPa WNW 4.7 km/h 12.9 km/h 54% 0.0 mm 60 W/m2
Juneau County Weather
Compliments of Weather Underground - 2 mb